createdAt,value
2018-04-15T00:01:55.601Z,85.30
2018-04-15T00:04:23.839Z,85.52
2018-04-15T00:06:52.081Z,86.85
2018-04-15T00:09:20.317Z,86.17
2018-04-15T00:11:48.555Z,86.59
2018-04-15T00:14:16.798Z,86.80
2018-04-15T00:16:45.063Z,86.57
2018-04-15T00:19:13.344Z,86.36
2018-04-15T00:21:41.571Z,86.42
2018-04-15T00:24:09.831Z,87.49
2018-04-15T00:26:38.061Z,87.19
2018-04-15T00:29:07.071Z,86.85
2018-04-15T00:31:36.810Z,86.91
2018-04-15T00:34:05.866Z,86.93
2018-04-15T00:36:34.103Z,86.49
2018-04-15T00:39:03.122Z,85.80
2018-04-15T00:41:31.388Z,86.59
2018-04-15T00:44:00.400Z,86.29
2018-04-15T00:46:29.390Z,86.33
2018-04-15T00:48:58.409Z,86.53
2018-04-15T00:51:27.414Z,86.83
2018-04-15T00:54:13.463Z,86.70
2018-04-15T00:56:41.731Z,86.57
2018-04-15T00:59:09.995Z,85.75
2018-04-15T01:01:39.011Z,86.15
2018-04-15T01:04:08.014Z,86.42
2018-04-15T01:06:37.006Z,87.06
2018-04-15T01:09:06.172Z,86.59
2018-04-15T01:11:34.425Z,86.64
2018-04-15T01:14:03.443Z,86.63
2018-04-15T01:16:31.696Z,87.06
2018-04-15T01:18:59.946Z,87.11
2018-04-15T01:21:28.167Z,87.31
2018-04-15T01:23:56.438Z,88.00
2018-04-15T01:26:24.697Z,87.21
2018-04-15T01:28:52.971Z,87.01
2018-04-15T01:31:21.272Z,86.30
2018-04-15T01:33:49.500Z,86.15
2018-04-15T01:36:18.643Z,85.87
2018-04-15T01:38:47.648Z,85.59
2018-04-15T01:41:16.657Z,86.29
2018-04-15T01:43:45.650Z,84.86
2018-04-15T01:46:13.899Z,84.95
2018-04-15T01:48:42.156Z,85.56
2018-04-15T01:51:10.437Z,85.62
2018-04-15T01:53:38.668Z,86.18
2018-04-15T01:56:07.077Z,86.50
2018-04-15T01:58:35.386Z,86.12
2018-04-15T02:01:04.986Z,86.48
2018-04-15T02:03:33.247Z,86.77
2018-04-15T02:06:01.492Z,87.66
2018-04-15T02:08:30.491Z,87.58
2018-04-15T02:10:59.517Z,87.51
2018-04-15T02:13:28.515Z,87.34
2018-04-15T02:15:57.534Z,86.23
2018-04-15T02:18:25.774Z,87.82
2018-04-15T02:20:54.006Z,87.96
2018-04-15T02:23:22.265Z,87.80
2018-04-15T02:25:50.521Z,87.56
2018-04-15T02:28:18.750Z,87.32
2018-04-15T02:30:46.998Z,87.07
2018-04-15T02:33:15.264Z,86.99
2018-04-15T02:35:43.499Z,87.11
2018-04-15T02:38:11.738Z,87.46
2018-04-15T02:40:40.012Z,87.62
2018-04-15T02:43:08.254Z,87.56
2018-04-15T02:45:37.266Z,87.80
2018-04-15T02:48:05.499Z,88.34
2018-04-15T02:50:33.774Z,89.21
2018-04-15T02:53:02.791Z,88.96
2018-04-15T02:55:31.808Z,88.62
2018-04-15T02:58:00.062Z,89.27
2018-04-15T03:00:28.315Z,88.82
2018-04-15T03:02:56.633Z,89.54
2018-04-15T03:05:24.880Z,89.01
2018-04-15T03:07:53.110Z,89.46
2018-04-15T03:10:21.351Z,89.10
2018-04-15T03:12:49.606Z,89.15
2018-04-15T03:15:17.833Z,89.22
2018-04-15T03:17:46.089Z,88.90
2018-04-15T03:20:15.089Z,89.65
2018-04-15T03:22:44.093Z,89.41
2018-04-15T03:25:13.078Z,89.11
2018-04-15T03:27:42.120Z,89.06
2018-04-15T03:30:11.137Z,89.21
2018-04-15T03:32:39.387Z,89.05
2018-04-15T03:35:07.624Z,88.35
2018-04-15T03:37:35.873Z,89.16
2018-04-15T03:40:04.877Z,89.25
2018-04-15T03:42:33.114Z,89.78
2018-04-15T03:45:01.339Z,89.62
2018-04-15T03:47:29.604Z,90.14
2018-04-15T03:49:57.830Z,90.24
2018-04-15T03:52:26.880Z,90.16
2018-04-15T03:54:55.153Z,90.76
2018-04-15T03:57:23.389Z,90.64
2018-04-15T03:59:51.625Z,91.18
2018-04-15T04:02:19.879Z,91.69
2018-04-15T04:04:48.126Z,91.73
2018-04-15T04:07:16.387Z,91.47
2018-04-15T04:09:45.400Z,91.71
2018-04-15T04:12:13.653Z,91.99
2018-04-15T04:14:41.880Z,93.02
2018-04-15T04:17:10.162Z,93.30
2018-04-15T04:19:56.690Z,93.18
2018-04-15T04:22:42.792Z,93.12
2018-04-15T04:28:18.184Z,93.37
2018-04-15T04:30:46.408Z,93.72
2018-04-15T04:33:14.647Z,94.01
2018-04-15T04:35:43.660Z,93.26
2018-04-15T04:38:12.683Z,93.55
2018-04-15T04:40:40.932Z,92.87
2018-04-15T04:43:09.184Z,91.80
2018-04-15T04:45:37.415Z,91.36
2018-04-15T04:48:06.429Z,90.84
2018-04-15T04:50:34.657Z,90.82
2018-04-15T04:53:02.908Z,90.98
2018-04-15T04:55:31.889Z,90.95
2018-04-15T04:58:00.907Z,90.96
2018-04-15T05:00:29.933Z,89.98
2018-04-15T05:02:58.181Z,90.33
2018-04-15T05:05:26.503Z,90.03
2018-04-15T05:07:55.502Z,89.26
2018-04-15T05:10:24.516Z,88.73
2018-04-15T05:12:52.768Z,89.29
2018-04-15T05:15:20.992Z,88.79
2018-04-15T05:17:49.234Z,87.84
2018-04-15T05:20:17.486Z,87.83
2018-04-15T05:22:45.718Z,87.97
2018-04-15T05:25:14.025Z,87.57
2018-04-15T05:27:42.255Z,87.10
2018-04-15T05:30:10.508Z,86.65
2018-04-15T05:32:38.734Z,85.73
2018-04-15T05:35:06.993Z,83.99
2018-04-15T05:37:36.049Z,82.78
2018-04-15T05:40:06.037Z,82.84
2018-04-15T05:42:35.855Z,83.01
2018-04-15T05:45:04.848Z,82.69
2018-04-15T05:47:34.477Z,82.81
2018-04-15T05:50:02.711Z,82.91
2018-04-15T05:52:30.969Z,82.95
2018-04-15T05:54:59.237Z,81.81
2018-04-15T05:57:28.253Z,81.54
2018-04-15T05:59:57.876Z,80.25
2018-04-15T06:02:26.880Z,80.37
2018-04-15T06:04:55.897Z,78.56
2018-04-15T06:07:24.140Z,77.45
2018-04-15T06:09:52.398Z,77.62
2018-04-15T06:12:20.643Z,76.51
2018-04-15T06:14:49.774Z,75.56
2018-04-15T06:17:18.011Z,75.62
2018-04-15T06:19:46.339Z,74.66
2018-04-15T06:22:15.367Z,73.81
2018-04-15T06:24:43.638Z,73.39
2018-04-15T06:27:12.687Z,72.73
2018-04-15T06:29:40.966Z,72.20
2018-04-15T06:32:09.216Z,70.91
2018-04-15T06:34:38.269Z,71.80
2018-04-15T06:37:06.534Z,71.42
2018-04-15T06:39:34.827Z,70.28
2018-04-15T06:42:03.071Z,70.99
2018-04-15T06:44:31.337Z,69.76
2018-04-15T06:46:59.572Z,68.94
2018-04-15T06:49:27.826Z,67.82
2018-04-15T06:51:56.080Z,67.90
2018-04-15T06:54:24.352Z,67.45
2018-04-15T06:56:53.384Z,69.57
2018-04-15T06:59:22.383Z,69.69
2018-04-15T07:01:50.661Z,69.20
2018-04-15T07:04:18.891Z,68.93
2018-04-15T07:06:47.149Z,69.95
2018-04-15T07:09:15.382Z,69.32
2018-04-15T07:11:43.686Z,69.33
2018-04-15T07:14:11.901Z,68.38
2018-04-15T07:16:40.170Z,69.31
2018-04-15T07:19:09.336Z,67.48
2018-04-15T07:21:37.628Z,67.40
2018-04-15T07:24:05.868Z,66.97
2018-04-15T07:26:34.110Z,65.63
2018-04-15T07:29:02.364Z,67.09
2018-04-15T07:31:30.647Z,67.26
2018-04-15T07:33:58.870Z,66.79
2018-04-15T07:36:27.201Z,66.88
2018-04-15T07:38:55.501Z,65.40
2018-04-15T07:41:23.760Z,65.13
2018-04-15T07:43:51.995Z,63.41
2018-04-15T07:46:20.251Z,65.21
2018-04-15T07:48:49.258Z,67.04
2018-04-15T07:51:18.284Z,65.31
2018-04-15T07:53:46.526Z,65.31
2018-04-15T07:56:14.822Z,67.55
2018-04-15T07:58:43.031Z,65.30
2018-04-15T08:01:12.653Z,65.28
2018-04-15T08:03:41.723Z,64.64
2018-04-15T08:06:09.966Z,64.93
2018-04-15T08:08:38.224Z,63.56
2018-04-15T08:11:08.500Z,63.93
2018-04-15T08:13:36.775Z,63.87
2018-04-15T08:16:05.020Z,63.07
2018-04-15T08:18:33.273Z,63.22
2018-04-15T08:21:01.534Z,64.43
2018-04-15T08:23:30.562Z,64.12
2018-04-15T08:25:58.819Z,64.02
2018-04-15T08:28:27.855Z,62.41
2018-04-15T08:30:56.111Z,61.54
2018-04-15T08:33:25.137Z,61.63
2018-04-15T08:35:53.380Z,63.27
2018-04-15T08:38:22.435Z,60.54
2018-04-15T08:40:50.701Z,60.55
2018-04-15T08:43:19.756Z,62.71
2018-04-15T08:45:47.999Z,58.64
2018-04-15T08:48:17.015Z,58.23
2018-04-15T08:50:46.043Z,61.95
2018-04-15T08:53:14.345Z,60.71
2018-04-15T08:55:42.586Z,58.85
2018-04-15T08:58:11.618Z,57.93
2018-04-15T09:00:39.885Z,58.27
2018-04-15T09:03:08.140Z,59.44
2018-04-15T09:05:36.436Z,61.29
2018-04-15T09:08:05.451Z,58.84
2018-04-15T09:10:33.697Z,59.49
2018-04-15T09:13:01.951Z,59.57
2018-04-15T09:15:31.708Z,58.36
2018-04-15T09:17:59.987Z,58.26
2018-04-15T09:20:28.293Z,61.36
2018-04-15T09:22:56.544Z,60.29
2018-04-15T09:25:25.547Z,59.82
2018-04-15T09:27:54.551Z,58.55
2018-04-15T09:30:23.566Z,57.71
2018-04-15T09:32:51.874Z,59.78
2018-04-15T09:35:20.180Z,58.96
2018-04-15T09:37:48.432Z,57.28
2018-04-15T09:40:16.693Z,58.65
2018-04-15T09:42:44.982Z,58.58
2018-04-15T09:45:13.286Z,58.77
2018-04-15T09:47:42.420Z,57.44
2018-04-15T09:50:10.747Z,58.63
2018-04-15T09:52:38.996Z,58.24
2018-04-15T09:55:07.246Z,56.84
2018-04-15T09:57:35.496Z,56.60
2018-04-15T10:00:03.799Z,54.86
2018-04-15T10:02:32.048Z,55.60
2018-04-15T10:05:01.116Z,56.67
2018-04-15T10:07:29.369Z,55.51
2018-04-15T10:09:57.638Z,56.24
2018-04-15T10:12:26.092Z,57.51
2018-04-15T10:14:54.347Z,56.67
2018-04-15T10:17:22.598Z,56.19
2018-04-15T10:19:50.861Z,55.28
2018-04-15T10:22:19.101Z,55.67
2018-04-15T10:24:47.365Z,55.46
2018-04-15T10:27:15.647Z,53.65
2018-04-15T10:29:44.659Z,54.97
2018-04-15T10:32:13.668Z,54.65
2018-04-15T10:34:41.919Z,54.44
2018-04-15T10:37:10.175Z,50.89
2018-04-15T10:39:38.439Z,53.17
2018-04-15T10:42:06.710Z,53.05
2018-04-15T10:44:35.735Z,52.28
2018-04-15T10:47:03.983Z,53.52
2018-04-15T10:49:32.247Z,52.59
2018-04-15T10:52:00.552Z,54.95
2018-04-15T10:54:28.822Z,52.61
2018-04-15T10:56:57.073Z,52.63
2018-04-15T10:59:26.090Z,51.00
2018-04-15T11:01:54.339Z,52.35
2018-04-15T11:04:22.614Z,53.08
2018-04-15T11:06:51.632Z,51.02
2018-04-15T11:09:19.921Z,50.08
2018-04-15T11:11:48.184Z,51.78
2018-04-15T11:14:16.434Z,52.63
2018-04-15T11:16:45.489Z,54.13
2018-04-15T11:19:13.757Z,52.37
2018-04-15T11:21:42.008Z,53.41
2018-04-15T11:24:11.023Z,52.87
2018-04-15T11:26:39.299Z,51.73
2018-04-15T11:29:07.536Z,52.33
2018-04-15T11:31:35.809Z,52.04
2018-04-15T11:34:04.055Z,51.46
2018-04-15T11:36:32.303Z,50.30
2018-04-15T11:39:00.576Z,50.70
2018-04-15T11:41:28.847Z,49.35
2018-04-15T11:43:57.123Z,48.79
2018-04-15T11:46:26.887Z,46.01
2018-04-15T11:48:55.131Z,47.06
2018-04-15T11:51:24.164Z,46.27
2018-04-15T11:53:52.394Z,44.68
2018-04-15T11:56:20.682Z,44.42
2018-04-15T11:58:49.711Z,44.83
2018-04-15T12:01:17.977Z,45.94
2018-04-15T12:03:46.230Z,45.74
2018-04-15T12:06:15.539Z,46.63
2018-04-15T12:08:43.786Z,46.11
2018-04-15T12:11:12.060Z,46.80
2018-04-15T12:13:40.323Z,44.16
2018-04-15T12:16:08.563Z,45.89
2018-04-15T12:18:36.839Z,44.86
2018-04-15T12:21:05.085Z,46.13
2018-04-15T12:23:33.343Z,45.75
2018-04-15T12:26:02.371Z,44.56
2018-04-15T12:28:30.633Z,45.74
2018-04-15T12:30:59.629Z,44.55
2018-04-15T12:33:28.652Z,45.02
2018-04-15T12:35:58.437Z,44.73
2018-04-15T12:38:27.522Z,44.60
2018-04-15T12:40:55.816Z,44.29
2018-04-15T12:43:24.799Z,44.33
2018-04-15T12:45:53.032Z,45.29
2018-04-15T12:48:21.309Z,43.71
2018-04-15T12:50:49.566Z,44.88
2018-04-15T12:53:17.842Z,44.79
2018-04-15T12:55:46.083Z,44.91
2018-04-15T12:58:14.352Z,46.02
2018-04-15T13:00:42.595Z,45.65
2018-04-15T13:03:11.636Z,44.39
2018-04-15T13:05:39.878Z,44.04
2018-04-15T13:08:08.150Z,44.22
2018-04-15T13:10:36.395Z,44.28
2018-04-15T13:13:04.661Z,42.65
2018-04-15T13:15:33.679Z,41.45
2018-04-15T13:18:02.713Z,43.78
2018-04-15T13:20:30.986Z,43.92
2018-04-15T13:22:59.230Z,45.13
2018-04-15T13:25:27.486Z,44.35
2018-04-15T13:27:56.526Z,43.31
2018-04-15T13:30:24.775Z,43.34
2018-04-15T13:32:53.038Z,43.81
2018-04-15T13:35:21.279Z,41.89
2018-04-15T13:37:49.582Z,41.44
2018-04-15T13:40:17.969Z,40.34
2018-04-15T13:42:46.153Z,40.72
2018-04-15T13:45:15.190Z,42.85
2018-04-15T13:47:44.203Z,42.43
2018-04-15T13:50:12.519Z,43.11
2018-04-15T13:52:40.775Z,42.30
2018-04-15T13:55:09.817Z,42.57
2018-04-15T13:57:38.094Z,43.11
2018-04-15T14:00:07.184Z,42.33
2018-04-15T14:02:36.224Z,41.85
2018-04-15T14:05:04.488Z,42.26
2018-04-15T14:07:32.749Z,42.77
2018-04-15T14:10:01.089Z,41.38
2018-04-15T14:12:29.416Z,40.52
2018-04-15T14:14:57.774Z,40.56
2018-04-15T14:17:26.055Z,41.08
2018-04-15T14:19:54.422Z,41.53
2018-04-15T14:22:23.456Z,42.08
2018-04-15T14:24:51.793Z,40.99
2018-04-15T14:27:20.083Z,40.94
2018-04-15T14:29:48.416Z,42.05
2018-04-15T14:32:16.639Z,41.83
2018-04-15T14:34:44.962Z,41.82
2018-04-15T14:37:14.002Z,40.53
2018-04-15T14:39:42.309Z,39.36
2018-04-15T14:42:10.580Z,41.27
2018-04-15T14:44:38.913Z,41.22
2018-04-15T14:47:07.206Z,40.83
2018-04-15T14:49:35.468Z,42.07
2018-04-15T14:52:03.785Z,41.53
2018-04-15T14:54:32.096Z,38.66
2018-04-15T14:57:01.285Z,40.58
2018-04-15T14:59:29.584Z,40.38
2018-04-15T15:01:58.633Z,40.79
2018-04-15T15:04:26.915Z,39.88
2018-04-15T15:06:55.176Z,40.20
2018-04-15T15:09:23.458Z,41.06
2018-04-15T15:11:51.748Z,41.12
2018-04-15T15:14:20.126Z,41.10
2018-04-15T15:16:48.419Z,41.72
2018-04-15T15:19:16.747Z,42.98
2018-04-15T15:21:44.941Z,43.08
2018-04-15T15:24:13.210Z,43.11
2018-04-15T15:26:42.263Z,42.57
2018-04-15T15:29:10.529Z,41.85
2018-04-15T15:31:38.816Z,41.77
2018-04-15T15:34:07.067Z,40.17
2018-04-15T15:36:35.328Z,41.29
2018-04-15T15:39:03.688Z,39.98
2018-04-15T15:41:32.035Z,39.63
2018-04-15T15:44:00.328Z,40.14
2018-04-15T15:46:28.616Z,39.85
2018-04-15T15:48:56.939Z,40.32
2018-04-15T15:51:25.968Z,40.55
2018-04-15T15:53:54.268Z,40.30
2018-04-15T15:56:22.558Z,39.67
2018-04-15T15:58:50.826Z,40.17
2018-04-15T16:01:19.147Z,39.62
2018-04-15T16:03:47.419Z,40.92
2018-04-15T16:06:15.791Z,40.45
2018-04-15T16:08:44.108Z,41.45
2018-04-15T16:11:12.377Z,42.60
2018-04-15T16:13:40.679Z,44.08
2018-04-15T16:16:08.957Z,43.77
2018-04-15T16:18:37.245Z,43.13
2018-04-15T16:21:05.528Z,43.54
2018-04-15T16:23:33.817Z,42.52
2018-04-15T16:26:02.073Z,43.59
2018-04-15T16:28:31.159Z,44.05
2018-04-15T16:30:59.449Z,45.20
2018-04-15T16:33:27.781Z,45.87
2018-04-15T16:35:56.012Z,45.87
2018-04-15T16:38:24.370Z,45.24
2018-04-15T16:40:52.686Z,45.77
2018-04-15T16:43:20.933Z,46.41
2018-04-15T16:45:49.975Z,46.81
2018-04-15T16:48:18.287Z,46.22
2018-04-15T16:50:46.580Z,46.38
2018-04-15T16:53:14.827Z,46.58
2018-04-15T16:55:43.149Z,46.39
2018-04-15T16:58:11.424Z,46.42
2018-04-15T17:00:39.726Z,47.56
2018-04-15T17:03:08.081Z,47.48
2018-04-15T17:05:37.125Z,47.87
2018-04-15T17:08:05.450Z,48.22
2018-04-15T17:10:33.858Z,48.55
2018-04-15T17:13:02.206Z,48.15
2018-04-15T17:15:30.481Z,49.65
2018-04-15T17:17:58.919Z,49.19
2018-04-15T17:20:27.984Z,48.74
2018-04-15T17:22:56.291Z,49.69
2018-04-15T17:25:24.607Z,49.79
2018-04-15T17:27:52.826Z,50.16
2018-04-15T17:30:21.064Z,51.11
2018-04-15T17:32:49.339Z,51.29
2018-04-15T17:35:17.630Z,51.21
2018-04-15T17:37:45.888Z,50.92
2018-04-15T17:40:14.201Z,51.54
2018-04-15T17:42:42.517Z,51.55
2018-04-15T17:45:10.764Z,52.38
2018-04-15T17:47:39.017Z,52.19
2018-04-15T17:50:08.076Z,52.34
2018-04-15T17:52:36.419Z,53.10
2018-04-15T17:55:05.498Z,53.75
2018-04-15T17:57:33.834Z,53.60
2018-04-15T18:00:02.218Z,53.44
2018-04-15T18:02:30.574Z,54.04
2018-04-15T18:04:58.876Z,54.49
2018-04-15T18:07:27.928Z,54.84
2018-04-15T18:09:56.214Z,55.48
2018-04-15T18:12:24.635Z,55.86
2018-04-15T18:14:52.921Z,56.07
2018-04-15T18:17:21.297Z,56.00
2018-04-15T18:19:49.574Z,56.55
2018-04-15T18:22:17.859Z,56.37
2018-04-15T18:24:46.168Z,56.65
2018-04-15T18:27:14.466Z,56.96
2018-04-15T18:29:42.771Z,57.04
2018-04-15T18:32:11.109Z,56.96
2018-04-15T18:34:40.142Z,57.38
2018-04-15T18:37:08.420Z,57.82
2018-04-15T18:39:36.719Z,58.39
2018-04-15T18:42:04.970Z,58.17
2018-04-15T18:44:33.990Z,57.96
2018-04-15T18:47:02.284Z,58.37
2018-04-15T18:49:30.606Z,58.49
2018-04-15T18:51:58.860Z,59.00
2018-04-15T18:54:27.242Z,58.98
2018-04-15T18:56:55.506Z,59.30
2018-04-15T18:59:23.775Z,59.04
2018-04-15T19:01:52.057Z,59.24
2018-04-15T19:04:20.525Z,59.29
2018-04-15T19:06:48.792Z,59.23
2018-04-15T19:09:17.914Z,59.87
2018-04-15T19:11:46.218Z,59.97
2018-04-15T19:14:14.515Z,60.13
2018-04-15T19:16:42.827Z,60.83
2018-04-15T19:19:11.874Z,60.61
2018-04-15T19:21:40.928Z,61.00
2018-04-15T19:24:10.384Z,61.16
2018-04-15T19:26:39.433Z,61.39
2018-04-15T19:29:07.703Z,61.47
2018-04-15T19:31:35.995Z,61.10
2018-04-15T19:34:04.270Z,61.47
2018-04-15T19:36:33.333Z,61.91
2018-04-15T19:39:01.636Z,61.83
2018-04-15T19:41:29.951Z,62.13
2018-04-15T19:43:58.298Z,62.11
2018-04-15T19:46:26.606Z,62.53
2018-04-15T19:48:54.851Z,62.73
2018-04-15T19:51:23.126Z,62.52
2018-04-15T19:53:51.450Z,62.39
2018-04-15T19:56:19.859Z,62.39
2018-04-15T19:58:48.105Z,62.74
2018-04-15T20:01:16.427Z,62.42
2018-04-15T20:03:44.663Z,62.05
2018-04-15T20:06:13.731Z,61.69
2018-04-15T20:08:41.978Z,62.01
2018-04-15T20:11:10.327Z,62.31
2018-04-15T20:13:38.597Z,61.77
2018-04-15T20:16:06.871Z,62.06
2018-04-15T20:18:35.178Z,62.21
2018-04-15T20:21:03.462Z,61.92
2018-04-15T20:23:31.758Z,61.89
2018-04-15T20:26:00.071Z,61.77
2018-04-15T20:28:28.356Z,61.75
2018-04-15T20:30:56.614Z,61.69
2018-04-15T20:33:24.876Z,61.86
2018-04-15T20:35:53.095Z,61.76
2018-04-15T20:38:22.365Z,61.75
2018-04-15T20:40:51.351Z,61.54
2018-04-15T20:43:20.453Z,61.61
2018-04-15T20:45:49.507Z,61.62
2018-04-15T20:48:17.774Z,61.82
2018-04-15T20:50:46.035Z,61.48
2018-04-15T20:53:14.359Z,61.71
2018-04-15T20:55:42.628Z,61.94
2018-04-15T20:58:11.676Z,61.84
2018-04-15T21:00:39.942Z,61.53
2018-04-15T21:03:08.980Z,61.96
2018-04-15T21:05:37.240Z,62.42
2018-04-15T21:08:05.518Z,62.64
2018-04-15T21:10:34.568Z,62.09
2018-04-15T21:13:02.844Z,62.71
2018-04-15T21:15:31.090Z,62.66
2018-04-15T21:18:00.176Z,63.00
2018-04-15T21:20:28.608Z,62.87
2018-04-15T21:22:57.646Z,62.67
2018-04-15T21:25:25.931Z,62.43
2018-04-15T21:27:54.207Z,62.08
2018-04-15T21:30:22.504Z,62.10
2018-04-15T21:32:50.760Z,62.32
2018-04-15T21:35:19.777Z,62.31
2018-04-15T21:37:48.810Z,62.12
2018-04-15T21:40:17.054Z,62.33
2018-04-15T21:42:45.322Z,62.67
2018-04-15T21:45:14.735Z,62.29
2018-04-15T21:47:43.088Z,61.61
2018-04-15T21:50:11.359Z,61.15
2018-04-15T21:52:39.679Z,61.31
2018-04-15T21:55:07.934Z,61.07
2018-04-15T21:57:36.956Z,61.45
2018-04-15T22:00:05.271Z,62.22
2018-04-15T22:02:33.512Z,61.58
2018-04-15T22:05:02.548Z,61.63
2018-04-15T22:07:30.799Z,61.91
2018-04-15T22:09:59.842Z,62.27
2018-04-15T22:12:28.075Z,62.56
2018-04-15T22:14:56.357Z,62.62
2018-04-15T22:17:24.602Z,63.41
2018-04-15T22:19:52.851Z,63.41
2018-04-15T22:22:21.200Z,63.95
2018-04-15T22:24:49.459Z,64.23
2018-04-15T22:27:17.707Z,64.72
2018-04-15T22:29:45.959Z,65.15
2018-04-15T22:32:14.214Z,66.04
2018-04-15T22:34:43.345Z,66.33
2018-04-15T22:37:11.585Z,66.54
2018-04-15T22:39:39.870Z,66.80
2018-04-15T22:42:08.118Z,67.44
2018-04-15T22:44:36.394Z,68.66
2018-04-15T22:47:06.164Z,68.59
2018-04-15T22:49:34.440Z,69.42
2018-04-15T22:52:02.688Z,69.81
2018-04-15T22:54:31.709Z,70.09
2018-04-15T22:57:05.352Z,71.26
2018-04-15T22:59:33.672Z,71.26
2018-04-15T23:02:01.929Z,71.88
2018-04-15T23:04:30.205Z,72.87
2018-04-15T23:06:58.454Z,73.12
2018-04-15T23:09:27.497Z,73.46
2018-04-15T23:11:55.722Z,73.26
2018-04-15T23:14:24.027Z,73.37
2018-04-15T23:16:52.258Z,73.45
2018-04-15T23:19:20.516Z,74.23
2018-04-15T23:21:49.523Z,74.66
2018-04-15T23:24:18.568Z,75.06
2018-04-15T23:26:46.803Z,75.25
2018-04-15T23:29:15.074Z,75.24
2018-04-15T23:31:43.380Z,75.50
2018-04-15T23:34:11.628Z,76.22
2018-04-15T23:36:39.886Z,76.37
2018-04-15T23:39:08.883Z,76.39
2018-04-15T23:41:37.913Z,76.80
2018-04-15T23:44:06.205Z,76.87
2018-04-15T23:46:34.457Z,76.47
2018-04-15T23:49:03.478Z,76.29
2018-04-15T23:51:32.517Z,76.64
2018-04-15T23:54:00.779Z,76.21
2018-04-15T23:56:29.290Z,76.61
2018-04-15T23:58:57.535Z,76.31
